Time;durP1;ratioP1;P1;durP2;ratioP2;P2;SDS_P1;SDS_P2;PMS_P1;PMS_P2;Temp;Humidity;BMP_temperature;BMP_pressure;BME280_temperature;BME280_humidity;BME280_pressure;Samples;Min_cycle;Max_cycle;Signal;HPM_P1;HPM_P2
2023/04/10 00:01:04;;;;;;;71.35;50.63;;;231.00;2252.80;;;;;;5050014;28;20463;-64
2023/04/10 00:03:30;;;;;;;75.63;50.72;;;231.00;2252.80;;;;;;5049533;28;20021;-64
2023/04/10 00:05:56;;;;;;;89.72;62.10;;;230.90;2252.80;;;;;;5049862;28;20072;-64
2023/04/10 00:08:24;;;;;;;75.32;52.33;;;230.90;2252.80;;;;;;5049671;28;20419;-64
2023/04/10 00:10:52;;;;;;;79.00;52.95;;;230.80;2252.80;;;;;;5036587;28;20034;-63
2023/04/10 00:13:17;;;;;;;83.28;54.63;;;230.80;2252.80;;;;;;5048956;28;20109;-68
2023/04/10 00:15:43;;;;;;;76.85;51.25;;;230.80;2252.80;;;;;;5049852;28;20108;-65
2023/04/10 00:18:09;;;;;;;87.00;55.22;;;230.70;2252.80;;;;;;5049090;28;20028;-65
2023/04/10 00:20:35;;;;;;;77.40;50.78;;;230.60;2252.80;;;;;;5035677;28;20033;-66
2023/04/10 00:23:00;;;;;;;75.32;50.05;;;230.50;2252.80;;;;;;5039985;28;20515;-68
2023/04/10 00:25:26;;;;;;;85.00;50.60;;;230.50;2252.80;;;;;;5049182;28;20506;-66
2023/04/10 00:27:53;;;;;;;72.55;48.78;;;230.50;2252.80;;;;;;5049610;28;20359;-67
2023/04/10 00:30:19;;;;;;;81.13;52.13;;;230.50;2252.80;;;;;;5048938;28;20067;-64
2023/04/10 00:32:45;;;;;;;86.68;54.70;;;230.50;2252.80;;;;;;5049043;28;20501;-64
2023/04/10 00:35:11;;;;;;;116.10;65.18;;;230.60;2252.80;;;;;;5049083;28;20029;-66
2023/04/10 00:37:37;;;;;;;80.53;53.15;;;230.60;2252.80;;;;;;5049036;28;20052;-68
2023/04/10 00:40:05;;;;;;;90.28;54.00;;;230.50;2252.80;;;;;;5049110;28;20044;-66
2023/04/10 00:42:31;;;;;;;80.00;53.40;;;230.60;2252.80;;;;;;5049395;28;20021;-65
2023/04/10 00:44:57;;;;;;;75.93;53.97;;;230.60;2252.80;;;;;;5048981;28;20481;-67
2023/04/10 00:47:23;;;;;;;75.90;49.55;;;230.50;2252.80;;;;;;5049273;28;20114;-67
2023/04/10 00:49:49;;;;;;;75.68;51.05;;;230.50;2252.80;;;;;;5048580;28;20052;-65
2023/04/10 00:52:15;;;;;;;75.75;49.25;;;230.50;1868.80;;;;;;5049052;28;20033;-65
2023/04/10 00:54:41;;;;;;;89.43;57.30;;;230.60;2252.80;;;;;;5049305;28;20021;-64
2023/04/10 00:57:07;;;;;;;77.93;50.00;;;230.50;2252.80;;;;;;5049198;28;20466;-67
2023/04/10 00:59:34;;;;;;;73.80;49.30;;;230.50;2252.80;;;;;;5048845;28;20018;-66
2023/04/10 01:01:59;;;;;;;68.88;46.85;;;230.60;2252.80;;;;;;5040593;28;20029;-62
2023/04/10 01:04:27;;;;;;;82.20;50.88;;;230.40;2252.80;;;;;;5048674;28;20029;-65
2023/04/10 01:07:08;;;;;;;79.30;49.47;;;230.50;2252.80;;;;;;5049087;28;20116;-67
2023/04/10 01:09:56;;;;;;;93.10;60.55;;;230.60;2252.80;;;;;;5048693;28;20045;-65
2023/04/10 01:12:47;;;;;;;75.00;50.03;;;230.60;2252.80;;;;;;5048947;28;20032;-68
2023/04/10 01:15:17;;;;;;;70.88;45.90;;;230.60;2252.80;;;;;;5044169;28;20463;-67
2023/04/10 01:17:45;;;;;;;80.32;52.03;;;230.60;2252.80;;;;;;5041032;28;20044;-68
2023/04/10 01:20:23;;;;;;;76.97;49.00;;;230.50;2252.80;;;;;;5048679;28;20078;-67
2023/04/10 01:23:18;;;;;;;70.47;47.20;;;230.50;2252.80;;;;;;5048676;28;20056;-64
2023/04/10 01:26:10;;;;;;;71.90;48.13;;;230.50;2252.80;;;;;;5035399;28;20025;-66
2023/04/10 01:28:36;;;;;;;74.45;49.38;;;230.60;2252.80;;;;;;5048361;28;20455;-68
2023/04/10 01:31:03;;;;;;;69.50;46.72;;;230.50;2252.80;;;;;;5048738;28;20063;-67
2023/04/10 01:33:38;;;;;;;67.25;45.50;;;230.40;2252.80;;;;;;5048273;28;20052;-68
2023/04/10 01:36:06;;;;;;;74.20;47.08;;;230.50;2252.80;;;;;;5048547;28;20108;-66
2023/04/10 01:38:32;;;;;;;73.25;51.03;;;230.40;2252.80;;;;;;5048505;28;20403;-68
2023/04/10 01:41:00;;;;;;;76.28;48.65;;;230.50;2252.80;;;;;;5048794;28;20064;-68
2023/04/10 01:43:28;;;;;;;77.50;48.30;;;230.50;2252.80;;;;;;5048900;28;20095;-66
2023/04/10 01:45:56;;;;;;;75.43;48.35;;;230.40;2252.80;;;;;;5048848;28;20029;-67
2023/04/10 01:48:22;;;;;;;72.70;47.83;;;205.70;2252.80;;;;;;5050934;28;20017;-69
2023/04/10 01:50:48;;;;;;;77.97;50.60;;;205.70;2252.80;;;;;;5052233;28;20025;-65
2023/04/10 01:53:15;;;;;;;74.35;48.80;;;230.40;2252.80;;;;;;5052186;28;20045;-69
2023/04/10 01:55:42;;;;;;;66.07;45.13;;;230.40;2252.80;;;;;;5052582;28;20021;-68
2023/04/10 01:58:08;;;;;;;81.88;49.63;;;230.40;2252.80;;;;;;5051889;28;20024;-69
2023/04/10 02:00:43;;;;;;;77.63;51.90;;;230.40;2252.80;;;;;;5052518;28;20027;-66
2023/04/10 02:03:10;;;;;;;76.97;48.97;;;205.70;2252.80;;;;;;5026415;28;20025;-65
2023/04/10 02:06:01;;;;;;;71.75;49.03;;;205.70;2252.80;;;;;;5051404;28;20037;-64
2023/04/10 02:08:33;;;;;;;68.32;47.00;;;205.70;2252.80;;;;;;5051807;28;20039;-64
2023/04/10 02:11:28;;;;;;;74.50;49.10;;;205.70;2252.80;;;;;;5051913;28;20571;-68
2023/04/10 02:13:57;;;;;;;75.15;48.42;;;230.40;2252.80;;;;;;5049476;28;20029;-64
2023/04/10 02:16:22;;;;;;;77.45;48.05;;;230.40;2252.80;;;;;;5049447;28;20037;-65
2023/04/10 02:18:50;;;;;;;79.05;49.33;;;205.70;2252.80;;;;;;5049399;28;20033;-63
2023/04/10 02:21:16;;;;;;;72.40;45.90;;;230.40;2252.80;;;;;;5048651;28;20025;-65
2023/04/10 02:23:42;;;;;;;73.32;50.22;;;230.50;2252.80;;;;;;5049489;28;20048;-66
2023/04/10 02:26:08;;;;;;;101.55;74.88;;;230.40;2252.80;;;;;;5048707;28;20045;-68
2023/04/10 02:28:37;;;;;;;67.22;45.92;;;205.70;2252.80;;;;;;5049617;28;20029;-66
2023/04/10 02:31:03;;;;;;;71.15;50.20;;;205.70;2252.80;;;;;;5049361;28;20035;-64
2023/04/10 02:33:29;;;;;;;75.40;49.10;;;230.40;2252.80;;;;;;5049011;28;20021;-64
2023/04/10 02:35:54;;;;;;;77.47;45.47;;;230.50;2252.80;;;;;;5049290;28;20049;-63
2023/04/10 02:38:20;;;;;;;69.00;45.88;;;205.50;2252.80;;;;;;5048863;28;20044;-65
2023/04/10 02:40:46;;;;;;;68.22;46.10;;;230.50;2252.80;;;;;;5048967;28;20555;-64
2023/04/10 02:43:12;;;;;;;68.97;44.90;;;230.50;2252.80;;;;;;5048442;28;20111;-63
2023/04/10 02:45:37;;;;;;;69.07;45.13;;;230.50;2252.80;;;;;;5048718;28;20041;-64
2023/04/10 02:48:06;;;;;;;76.85;49.63;;;230.50;2252.80;;;;;;5049109;28;20037;-64
2023/04/10 02:50:32;;;;;;;72.75;46.38;;;230.50;2252.80;;;;;;5049518;28;20069;-65
2023/04/10 02:52:57;;;;;;;71.88;45.97;;;230.50;2252.80;;;;;;5049411;28;20067;-67
2023/04/10 02:55:23;;;;;;;75.60;49.17;;;230.50;2252.80;;;;;;5039787;28;20112;-63
2023/04/10 02:57:49;;;;;;;76.65;47.20;;;230.50;2252.80;;;;;;5051367;28;20471;-65
2023/04/10 03:00:15;;;;;;;80.05;46.83;;;230.40;2252.80;;;;;;5050272;28;20087;-68
2023/04/10 03:02:40;;;;;;;70.40;43.55;;;230.50;2252.80;;;;;;5050983;28;20108;-67
2023/04/10 03:05:07;;;;;;;73.25;48.05;;;230.40;2252.80;;;;;;5050896;28;20029;-67
2023/04/10 03:07:33;;;;;;;69.55;46.28;;;230.40;2252.80;;;;;;5051152;28;20087;-68
2023/04/10 03:09:59;;;;;;;78.35;50.63;;;230.50;2252.80;;;;;;5050778;28;20021;-65
2023/04/10 03:12:25;;;;;;;72.93;46.13;;;230.50;2252.80;;;;;;5051193;28;20033;-65
2023/04/10 03:14:51;;;;;;;70.78;45.40;;;230.40;2252.80;;;;;;5048151;28;20025;-65
2023/04/10 03:17:17;;;;;;;74.95;47.65;;;230.40;2252.80;;;;;;5050835;28;20070;-65
2023/04/10 03:19:42;;;;;;;74.20;45.80;;;205.70;2252.80;;;;;;5050605;28;20029;-65
2023/04/10 03:22:09;;;;;;;73.43;45.38;;;205.70;2252.80;;;;;;5050434;28;20112;-66
2023/04/10 03:24:36;;;;;;;68.20;44.80;;;230.40;2252.80;;;;;;5050091;28;20025;-66
2023/04/10 03:27:02;;;;;;;74.68;46.83;;;205.60;2252.80;;;;;;5050478;28;20129;-65
2023/04/10 03:29:28;;;;;;;75.97;44.42;;;205.70;2252.80;;;;;;5046837;28;20097;-65
2023/04/10 03:31:54;;;;;;;78.55;56.00;;;205.70;2252.80;;;;;;5049084;28;20029;-65
2023/04/10 03:34:20;;;;;;;74.15;45.78;;;205.70;2252.80;;;;;;5030258;28;20021;-65
2023/04/10 03:36:45;;;;;;;76.75;47.60;;;205.70;2252.80;;;;;;5029108;28;20052;-67
2023/04/10 03:39:11;;;;;;;75.28;47.65;;;205.60;2252.80;;;;;;5048564;28;20138;-66
2023/04/10 03:41:37;;;;;;;65.13;44.08;;;205.60;2252.80;;;;;;5045568;28;20051;-70
2023/04/10 03:44:03;;;;;;;75.20;48.03;;;205.60;2252.80;;;;;;5029714;28;20037;-70
2023/04/10 03:46:29;;;;;;;69.32;44.40;;;205.40;2252.80;;;;;;5037046;28;20029;-68
2023/04/10 03:48:55;;;;;;;79.47;48.45;;;205.40;2252.80;;;;;;5033025;28;20029;-68
2023/04/10 03:51:23;;;;;;;74.30;44.83;;;205.40;2252.80;;;;;;5030909;28;20030;-69
2023/04/10 03:53:49;;;;;;;70.50;44.30;;;205.50;2252.80;;;;;;5041732;28;20427;-64
2023/04/10 03:56:15;;;;;;;74.80;47.22;;;205.50;2252.80;;;;;;5048128;28;20107;-66
2023/04/10 03:58:41;;;;;;;73.15;44.58;;;205.50;2252.80;;;;;;5038815;28;20025;-66
2023/04/10 04:01:07;;;;;;;75.35;45.85;;;205.40;2252.80;;;;;;5041218;28;20048;-66
2023/04/10 04:03:32;;;;;;;74.57;49.75;;;205.40;2252.80;;;;;;5030473;28;20028;-66
2023/04/10 04:05:58;;;;;;;89.45;59.72;;;205.20;2073.60;;;;;;5032183;28;20492;-67
2023/04/10 04:08:24;;;;;;;70.32;45.45;;;205.40;2252.80;;;;;;5038265;28;20029;-65
2023/04/10 04:10:50;;;;;;;80.95;57.78;;;205.50;2252.80;;;;;;5031501;28;20039;-68
2023/04/10 04:13:15;;;;;;;69.22;43.60;;;205.40;2252.80;;;;;;5048551;28;20040;-64
2023/04/10 04:15:41;;;;;;;73.15;45.55;;;205.50;2252.80;;;;;;5049413;28;20554;-69
2023/04/10 04:18:08;;;;;;;74.43;42.38;;;205.50;2252.80;;;;;;5041793;28;20120;-67
2023/04/10 04:20:34;;;;;;;79.78;45.80;;;205.60;2252.80;;;;;;5032481;28;20068;-63
2023/04/10 04:22:59;;;;;;;101.35;64.65;;;205.60;2252.80;;;;;;5039878;28;20429;-68
2023/04/10 04:25:26;;;;;;;68.25;43.03;;;205.60;2252.80;;;;;;5043355;28;20033;-66
2023/04/10 04:27:51;;;;;;;69.13;44.03;;;205.60;2252.80;;;;;;5049731;28;20029;-67
2023/04/10 04:30:17;;;;;;;72.05;42.85;;;205.30;2252.80;;;;;;5036210;28;20021;-65
2023/04/10 04:32:42;;;;;;;65.15;43.42;;;205.30;2252.80;;;;;;5049716;28;20108;-64
2023/04/10 04:35:08;;;;;;;65.28;39.90;;;205.20;2176.00;;;;;;5048474;28;20029;-65
2023/04/10 04:37:34;;;;;;;76.20;46.17;;;205.10;2252.80;;;;;;5049565;28;20036;-64
2023/04/10 04:40:00;;;;;;;64.95;42.17;;;204.90;2252.80;;;;;;5049026;28;20175;-63
2023/04/10 04:42:26;;;;;;;63.65;39.20;;;205.10;2252.80;;;;;;5031308;28;20025;-63
2023/04/10 04:44:51;;;;;;;61.58;38.90;;;205.10;2252.80;;;;;;5041654;28;20494;-63
2023/04/10 04:47:17;;;;;;;60.78;37.78;;;205.20;2252.80;;;;;;5036410;28;20585;-65
2023/04/10 04:49:43;;;;;;;59.85;37.85;;;205.20;2252.80;;;;;;5048935;28;20025;-65
2023/04/10 04:52:09;;;;;;;55.88;36.15;;;205.20;2252.80;;;;;;5048970;28;20116;-64
2023/04/10 04:54:35;;;;;;;51.85;34.90;;;205.30;2252.80;;;;;;5048793;28;20022;-65
2023/04/10 04:57:01;;;;;;;56.33;36.13;;;205.30;2252.80;;;;;;5049460;28;20032;-64
2023/04/10 04:59:26;;;;;;;55.88;36.70;;;205.10;2252.80;;;;;;5048915;28;20518;-62
2023/04/10 05:01:52;;;;;;;61.30;43.78;;;205.00;2252.80;;;;;;5036275;28;20029;-66
2023/04/10 05:04:19;;;;;;;50.83;33.15;;;205.10;2252.80;;;;;;5030616;28;20471;-62
2023/04/10 05:06:45;;;;;;;54.78;34.17;;;205.00;2252.80;;;;;;5048577;28;20037;-65
2023/04/10 05:09:11;;;;;;;49.65;31.08;;;205.10;2252.80;;;;;;5048464;28;20037;-65
2023/04/10 05:11:36;;;;;;;45.35;30.02;;;205.10;2252.80;;;;;;5048679;28;20039;-65
2023/04/10 05:14:02;;;;;;;78.40;49.90;;;205.30;2252.80;;;;;;5049468;28;20021;-63
2023/04/10 05:16:28;;;;;;;47.38;33.00;;;205.20;2252.80;;;;;;5048507;28;20405;-65
2023/04/10 05:18:54;;;;;;;41.47;27.58;;;205.40;2252.80;;;;;;5048920;28;20025;-63
2023/04/10 05:21:19;;;;;;;44.72;28.05;;;205.30;2252.80;;;;;;5048521;28;20057;-65
2023/04/10 05:23:45;;;;;;;41.50;26.80;;;205.10;2252.80;;;;;;5052422;28;20068;-65
2023/04/10 05:26:11;;;;;;;39.22;25.65;;;205.10;2252.80;;;;;;5052831;28;20036;-65
2023/04/10 05:28:37;;;;;;;34.20;24.27;;;205.00;2252.80;;;;;;5053113;28;20028;-68
2023/04/10 05:31:02;;;;;;;36.05;23.27;;;205.00;2252.80;;;;;;5052931;28;20634;-67
2023/04/10 05:33:28;;;;;;;37.42;23.95;;;204.90;2252.80;;;;;;5052361;28;20024;-68
2023/04/10 05:35:55;;;;;;;34.97;23.75;;;204.90;2252.80;;;;;;5052349;28;20018;-64
2023/04/10 05:38:21;;;;;;;38.28;26.05;;;205.00;2252.80;;;;;;5052696;28;20021;-69
2023/04/10 05:40:46;;;;;;;34.72;21.67;;;205.00;2252.80;;;;;;5052235;28;20032;-65
2023/04/10 05:43:12;;;;;;;49.08;32.80;;;205.00;2252.80;;;;;;5052569;28;20478;-68
2023/04/10 05:45:39;;;;;;;300.92;215.88;;;204.90;2252.80;;;;;;5052290;28;20025;-66
2023/04/10 05:48:05;;;;;;;45.83;30.83;;;204.90;2252.80;;;;;;5052533;28;20028;-67
2023/04/10 05:50:31;;;;;;;45.33;36.63;;;205.00;2252.80;;;;;;5052152;28;20032;-68
2023/04/10 05:52:56;;;;;;;39.22;30.15;;;205.10;2252.80;;;;;;5052453;28;20425;-70
2023/04/10 05:55:22;;;;;;;34.85;25.10;;;205.10;2252.80;;;;;;5051938;28;20027;-67
2023/04/10 05:57:50;;;;;;;38.63;25.88;;;205.10;2252.80;;;;;;5051936;28;20043;-63
2023/04/10 06:00:16;;;;;;;35.47;26.58;;;205.20;2252.80;;;;;;5052290;28;20025;-65
2023/04/10 06:02:42;;;;;;;30.75;21.60;;;205.10;2252.80;;;;;;5052265;28;20040;-64
2023/04/10 06:05:08;;;;;;;169.00;91.10;;;205.00;2252.80;;;;;;5051464;28;20033;-65
2023/04/10 06:07:33;;;;;;;34.33;24.65;;;205.10;2252.80;;;;;;5052268;28;20061;-64
2023/04/10 06:09:59;;;;;;;31.20;19.60;;;205.20;2252.80;;;;;;5051890;28;20122;-64
2023/04/10 06:12:25;;;;;;;31.30;22.15;;;205.00;2252.80;;;;;;5051653;28;20546;-66
2023/04/10 06:14:51;;;;;;;35.72;29.48;;;205.10;2252.80;;;;;;5051579;28;20020;-65
2023/04/10 06:17:19;;;;;;;34.53;26.50;;;205.10;2252.80;;;;;;5051827;28;20021;-67
2023/04/10 06:19:45;;;;;;;34.60;22.73;;;205.10;2252.80;;;;;;5051717;28;20029;-66
2023/04/10 06:22:11;;;;;;;39.63;31.85;;;205.20;2252.80;;;;;;5051607;28;20040;-66
2023/04/10 06:24:36;;;;;;;29.58;19.48;;;205.20;2252.80;;;;;;5050331;28;20103;-68
2023/04/10 06:27:02;;;;;;;34.85;24.25;;;205.20;2252.80;;;;;;5051238;28;20032;-65
2023/04/10 06:29:28;;;;;;;32.17;21.73;;;205.20;2252.80;;;;;;5051725;28;20455;-67
2023/04/10 06:31:54;;;;;;;33.33;23.77;;;205.20;2252.80;;;;;;5051511;28;20025;-65
2023/04/10 06:34:19;;;;;;;31.55;21.48;;;205.20;2252.80;;;;;;5036327;28;20025;-66
2023/04/10 06:36:45;;;;;;;31.73;23.50;;;205.20;2252.80;;;;;;5051121;28;20126;-65
2023/04/10 06:39:11;;;;;;;31.70;24.73;;;205.30;2252.80;;;;;;5037483;28;20188;-66
2023/04/10 06:41:36;;;;;;;31.83;28.20;;;205.30;2252.80;;;;;;5051395;28;20025;-67
2023/04/10 06:44:02;;;;;;;33.33;24.98;;;205.30;2252.80;;;;;;5051476;28;20477;-67
2023/04/10 06:46:28;;;;;;;38.33;29.67;;;205.30;2252.80;;;;;;5051223;28;20463;-65
2023/04/10 06:48:53;;;;;;;35.55;26.17;;;205.20;2252.80;;;;;;5051427;28;20032;-66
2023/04/10 06:51:19;;;;;;;27.52;21.35;;;205.30;2252.80;;;;;;5037173;28;20026;-65
2023/04/10 06:53:45;;;;;;;30.63;20.65;;;205.20;2252.80;;;;;;5042317;28;20038;-65
2023/04/10 06:56:10;;;;;;;29.98;24.35;;;205.30;2252.80;;;;;;5046312;28;20051;-65
2023/04/10 06:58:36;;;;;;;26.67;19.27;;;205.30;2252.80;;;;;;5050865;28;20024;-68
2023/04/10 07:01:03;;;;;;;26.00;21.13;;;205.30;2252.80;;;;;;5051706;28;20029;-64
2023/04/10 07:03:30;;;;;;;25.38;17.40;;;205.30;2252.80;;;;;;5050993;28;20434;-67
2023/04/10 07:05:56;;;;;;;24.45;19.30;;;205.30;2252.80;;;;;;5050471;28;20045;-66
2023/04/10 07:08:22;;;;;;;29.02;24.63;;;205.30;2252.80;;;;;;5051395;28;20463;-65
2023/04/10 07:10:47;;;;;;;23.88;17.13;;;205.50;2252.80;;;;;;5048731;28;20421;-65
2023/04/10 07:13:13;;;;;;;23.40;16.20;;;205.60;2252.80;;;;;;5040167;28;20037;-66
2023/04/10 07:15:39;;;;;;;23.05;16.45;;;205.70;2252.80;;;;;;5051037;28;20021;-68
2023/04/10 07:18:05;;;;;;;20.17;14.38;;;230.40;2252.80;;;;;;5050799;28;20029;-65
2023/04/10 07:20:31;;;;;;;21.45;15.35;;;230.50;2252.80;;;;;;5050297;28;20060;-66
2023/04/10 07:22:56;;;;;;;21.17;15.77;;;230.60;2252.80;;;;;;5050428;28;20059;-66
2023/04/10 07:25:22;;;;;;;41.22;36.67;;;230.80;2252.80;;;;;;5050494;28;20021;-64
2023/04/10 07:27:48;;;;;;;17.88;13.68;;;230.80;2252.80;;;;;;5050051;28;20033;-64
2023/04/10 07:30:14;;;;;;;20.55;15.63;;;230.90;2252.80;;;;;;5046076;28;20036;-67
2023/04/10 07:32:41;;;;;;;18.52;13.80;;;231.00;2252.80;;;;;;5050481;28;20029;-66
2023/04/10 07:35:07;;;;;;;22.60;16.08;;;230.90;2252.80;;;;;;5049643;28;20025;-65
2023/04/10 07:37:32;;;;;;;21.02;14.98;;;230.90;2252.80;;;;;;5050682;28;20025;-69
2023/04/10 07:39:59;;;;;;;23.58;15.98;;;231.00;2252.80;;;;;;5050131;28;20045;-66
2023/04/10 07:42:25;;;;;;;21.10;15.98;;;231.00;2252.80;;;;;;5041395;28;20195;-69
2023/04/10 07:44:51;;;;;;;20.13;14.57;;;231.10;2252.80;;;;;;5045634;28;20478;-68
2023/04/10 07:47:16;;;;;;;22.05;15.27;;;231.10;2252.80;;;;;;5049994;28;20045;-71
2023/04/10 07:49:42;;;;;;;25.60;19.25;;;231.20;2252.80;;;;;;5050229;28;20027;-70
2023/04/10 07:52:08;;;;;;;19.88;14.05;;;231.20;2252.80;;;;;;5045325;28;20059;-70
2023/04/10 07:54:34;;;;;;;21.50;16.13;;;231.30;2252.80;;;;;;5031555;28;20383;-68
2023/04/10 07:57:00;;;;;;;28.13;22.48;;;256.10;2252.80;;;;;;5041804;28;20071;-71
2023/04/10 07:59:27;;;;;;;21.67;16.85;;;256.10;2252.80;;;;;;5045029;28;20475;-68
2023/04/10 08:01:53;;;;;;;24.58;17.27;;;256.20;2252.80;;;;;;5050199;28;20017;-66
2023/04/10 08:04:19;;;;;;;20.92;15.52;;;256.40;2252.80;;;;;;5050030;28;20048;-73
2023/04/10 08:06:45;;;;;;;25.25;15.80;;;256.70;2252.80;;;;;;5049725;28;20398;-67
2023/04/10 08:09:10;;;;;;;23.77;17.60;;;256.90;2252.80;;;;;;5049707;28;20025;-72
2023/04/10 08:11:37;;;;;;;19.45;15.68;;;281.70;2278.40;;;;;;5049744;28;20078;-67
2023/04/10 08:14:04;;;;;;;22.77;16.30;;;281.70;2278.40;;;;;;5050086;28;20067;-72
2023/04/10 08:16:32;;;;;;;25.65;18.33;;;281.70;2278.40;;;;;;5049827;28;20112;-71
2023/04/10 08:18:59;;;;;;;24.83;19.27;;;281.80;2278.40;;;;;;5049559;28;20013;-72
2023/04/10 08:21:26;;;;;;;25.45;18.20;;;282.10;2278.40;;;;;;5037108;28;20500;-70
2023/04/10 08:23:54;;;;;;;27.95;20.08;;;282.40;2278.40;;;;;;5047946;28;20489;-72
2023/04/10 08:26:20;;;;;;;31.73;23.23;;;282.30;2278.40;;;;;;5048381;28;20036;-72
2023/04/10 08:28:51;;;;;;;25.85;20.00;;;282.50;2278.40;;;;;;5049718;28;20028;-69
2023/04/10 08:31:18;;;;;;;26.48;20.08;;;282.50;2278.40;;;;;;5049317;28;20025;-71
2023/04/10 08:33:44;;;;;;;91.88;56.13;;;307.30;2304.00;;;;;;5047607;28;20107;-70
2023/04/10 08:36:11;;;;;;;32.33;24.38;;;307.30;2304.00;;;;;;5049039;28;20107;-70
2023/04/10 08:38:37;;;;;;;33.75;23.40;;;307.40;2304.00;;;;;;5048946;28;20107;-70
2023/04/10 08:41:04;;;;;;;61.35;38.55;;;307.30;2304.00;;;;;;5049259;28;20052;-70
2023/04/10 08:43:29;;;;;;;48.17;32.22;;;307.50;2304.00;;;;;;5048735;28;20066;-71
2023/04/10 08:45:55;;;;;;;47.22;30.00;;;282.50;2278.40;;;;;;5049191;28;20033;-71
2023/04/10 08:48:24;;;;;;;35.42;25.85;;;307.20;2304.00;;;;;;5049179;28;20029;-70
2023/04/10 08:50:50;;;;;;;44.15;28.75;;;282.50;2278.40;;;;;;5047638;28;20028;-67
2023/04/10 08:53:19;;;;;;;55.15;36.08;;;282.50;2278.40;;;;;;5048315;28;20486;-69
2023/04/10 08:55:45;;;;;;;41.70;27.92;;;282.40;2278.40;;;;;;5048984;28;20486;-70
2023/04/10 08:58:12;;;;;;;34.10;23.45;;;282.30;2278.40;;;;;;5048207;28;20112;-71
2023/04/10 09:00:38;;;;;;;49.13;32.53;;;282.30;2278.40;;;;;;5048912;28;20035;-71
2023/04/10 09:03:16;;;;;;;30.83;21.08;;;282.30;2278.40;;;;;;5049451;28;20033;-68
2023/04/10 09:05:42;;;;;;;49.60;36.28;;;282.50;2278.40;;;;;;5048933;28;20033;-71
2023/04/10 09:08:12;;;;;;;47.63;32.53;;;307.40;2304.00;;;;;;5045860;28;20080;-72
2023/04/10 09:10:38;;;;;;;38.97;28.55;;;307.50;2304.00;;;;;;5039785;28;20367;-69
2023/04/10 09:13:04;;;;;;;49.28;32.58;;;307.60;2304.00;;;;;;5048956;28;20098;-68
2023/04/10 09:15:29;;;;;;;38.67;26.70;;;307.80;2304.00;;;;;;5049334;28;20356;-71
2023/04/10 09:17:55;;;;;;;41.92;29.52;;;307.60;2304.00;;;;;;5048705;28;20463;-71
2023/04/10 09:20:23;;;;;;;52.08;36.28;;;307.40;2304.00;;;;;;5048750;28;20022;-71
2023/04/10 09:22:48;;;;;;;45.10;32.38;;;307.40;2304.00;;;;;;5049312;28;20025;-68
2023/04/10 09:25:34;;;;;;;48.95;33.35;;;307.80;2304.00;;;;;;5049385;28;20051;-71
2023/04/10 09:28:07;;;;;;;46.90;33.97;;;308.00;2304.00;;;;;;5048562;28;20130;-71
2023/04/10 09:30:33;;;;;;;;;;;308.10;2304.00;;;;;;5048085;28;20669;-71
2023/04/10 09:32:59;;;;;;;44.83;32.83;;;333.40;2329.60;;;;;;5037741;28;19955;-70
2023/04/10 09:35:35;;;;;;;38.80;28.15;;;333.60;2329.60;;;;;;5048995;28;20259;-69
2023/04/10 09:38:12;;;;;;;104.80;67.18;;;333.50;2329.60;;;;;;5048513;28;20017;-69
2023/04/10 09:40:37;;;;;;;37.92;28.00;;;333.70;2329.60;;;;;;5048780;28;20036;-71
2023/04/10 09:43:17;;;;;;;70.55;49.75;;;333.50;2329.60;;;;;;5048720;28;20087;-72
2023/04/10 09:45:51;;;;;;;39.17;27.67;;;358.80;2329.60;;;;;;5047844;28;20029;-72
2023/04/10 09:48:17;;;;;;;53.28;38.72;;;358.80;2329.60;;;;;;5033740;28;20048;-69
2023/04/10 09:50:43;;;;;;;55.83;39.67;;;359.10;2329.60;;;;;;5031629;28;20045;-69
2023/04/10 09:53:14;;;;;;;130.50;86.07;;;359.00;2329.60;;;;;;5022502;28;20029;-73
2023/04/10 09:55:40;;;;;;;48.88;36.72;;;359.10;2329.60;;;;;;5047755;28;20479;-70
2023/04/10 09:58:07;;;;;;;42.50;30.35;;;358.90;2329.60;;;;;;5041951;28;20491;-69
2023/04/10 10:00:46;;;;;;;40.30;30.88;;;358.60;2329.60;;;;;;5036442;28;20105;-71
2023/04/10 10:03:17;;;;;;;52.17;46.35;;;333.60;2329.60;;;;;;5034290;28;20402;-71
2023/04/10 10:05:49;;;;;;;38.97;29.73;;;333.50;2329.60;;;;;;5032119;28;20033;-72
2023/04/10 10:08:15;;;;;;;37.60;27.95;;;333.40;2329.60;;;;;;5049564;28;20058;-70
2023/04/10 10:10:47;;;;;;;38.50;27.42;;;333.30;2329.60;;;;;;5050148;28;20021;-70
2023/04/10 10:13:23;;;;;;;43.20;32.05;;;333.10;2329.60;;;;;;5040685;28;20068;-67
2023/04/10 10:16:12;;;;;;;33.83;26.65;;;333.10;2329.60;;;;;;5051694;28;20550;-70
2023/04/10 10:18:46;;;;;;;55.10;39.10;;;332.90;2329.60;;;;;;5049164;28;20025;-68
2023/04/10 10:21:14;;;;;;;45.75;30.20;;;333.20;2329.60;;;;;;5037728;28;20041;-71
2023/04/10 10:23:43;;;;;;;60.10;46.78;;;333.30;2329.60;;;;;;5049025;28;20064;-70
2023/04/10 10:26:09;;;;;;;71.78;49.20;;;333.20;2329.60;;;;;;5048753;28;20068;-70
2023/04/10 10:28:36;;;;;;;60.42;41.95;;;333.10;2329.60;;;;;;5049457;28;20469;-68
2023/04/10 10:31:02;;;;;;;71.47;56.78;;;333.00;2329.60;;;;;;5049367;28;20059;-68
2023/04/10 10:33:29;;;;;;;49.80;38.58;;;333.20;2329.60;;;;;;5048966;28;20494;-69
2023/04/10 10:35:59;;;;;;;39.28;30.90;;;333.60;2329.60;;;;;;5049071;28;20152;-70
2023/04/10 10:38:27;;;;;;;38.00;27.80;;;358.50;2329.60;;;;;;5046691;28;20087;-70
2023/04/10 10:41:24;;;;;;;65.07;46.35;;;358.60;2329.60;;;;;;5029175;28;20026;-70
2023/04/10 10:44:07;;;;;;;45.42;32.22;;;358.80;2329.60;;;;;;5029049;28;20065;-68
2023/04/10 10:46:39;;;;;;;35.85;27.75;;;359.00;2329.60;;;;;;5011888;28;20038;-70
2023/04/10 10:49:05;;;;;;;47.53;36.42;;;359.00;2329.60;;;;;;5025673;28;20104;-68
2023/04/10 10:51:50;;;;;;;38.38;29.00;;;359.10;2329.60;;;;;;5029088;28;20456;-70
2023/04/10 10:54:31;;;;;;;40.17;28.45;;;384.20;2329.60;;;;;;5028896;28;20061;-69
2023/04/10 10:56:58;;;;;;;42.67;32.50;;;384.30;2329.60;;;;;;5011521;28;20018;-69
2023/04/10 10:59:42;;;;;;;36.97;28.45;;;384.40;2329.60;;;;;;5011725;28;20030;-70
2023/04/10 11:02:16;;;;;;;36.97;27.60;;;384.30;2329.60;;;;;;5011033;28;20026;-72
2023/04/10 11:04:44;;;;;;;47.42;33.50;;;384.10;2329.60;;;;;;5011243;28;20037;-71
2023/04/10 11:07:10;;;;;;;31.33;23.50;;;384.20;2329.60;;;;;;5010750;28;20041;-72
2023/04/10 11:09:48;;;;;;;42.28;32.25;;;384.00;2329.60;;;;;;5011435;28;20483;-69
2023/04/10 11:12:15;;;;;;;36.78;26.67;;;359.10;2329.60;;;;;;4986305;28;20117;-69
2023/04/10 11:14:43;;;;;;;37.40;29.58;;;358.80;2329.60;;;;;;5010933;28;20797;-70
2023/04/10 11:17:10;;;;;;;43.65;30.45;;;358.90;2329.60;;;;;;5011166;28;20053;-70
2023/04/10 11:19:58;;;;;;;40.13;28.00;;;358.80;2329.60;;;;;;5009909;28;20025;-68
2023/04/10 11:22:24;;;;;;;31.45;23.40;;;358.80;2329.60;;;;;;5011172;28;20030;-70
2023/04/10 11:24:58;;;;;;;43.38;30.42;;;358.80;2329.60;;;;;;5010978;28;20215;-71
2023/04/10 11:27:39;;;;;;;26.63;21.08;;;358.90;2329.60;;;;;;5011210;28;20073;-71
2023/04/10 11:30:34;;;;;;;48.85;32.17;;;359.00;2329.60;;;;;;4985084;28;20029;-70
2023/04/10 11:33:02;;;;;;;61.05;42.20;;;359.10;2329.60;;;;;;5010465;28;20018;-68
2023/04/10 11:35:30;;;;;;;33.08;23.52;;;359.00;2329.60;;;;;;5006898;28;20065;-70
2023/04/10 11:38:13;;;;;;;61.80;42.25;;;359.20;2329.60;;;;;;5010355;28;20118;-69
2023/04/10 11:41:03;;;;;;;35.35;24.52;;;384.10;2329.60;;;;;;5050611;28;20080;-70
2023/04/10 11:43:29;;;;;;;27.55;21.10;;;359.30;2329.60;;;;;;5050199;28;20029;-70
2023/04/10 11:46:03;;;;;;;40.85;28.48;;;384.10;2329.60;;;;;;5048606;28;20032;-69
2023/04/10 11:48:29;;;;;;;40.67;29.67;;;384.10;2329.60;;;;;;5048645;28;20029;-70
2023/04/10 11:50:55;;;;;;;38.60;30.13;;;359.20;2329.60;;;;;;5048899;28;20020;-70
2023/04/10 11:53:21;;;;;;;259.88;170.15;;;359.00;2329.60;;;;;;5048631;28;20501;-70
2023/04/10 11:55:47;;;;;;;85.07;39.58;;;359.00;2329.60;;;;;;5048507;28;20017;-69
2023/04/10 11:58:26;;;;;;;28.23;20.65;;;359.00;2329.60;;;;;;5048517;28;20025;-71
2023/04/10 12:01:00;;;;;;;25.15;20.10;;;358.90;2329.60;;;;;;5048056;28;20028;-72
2023/04/10 12:03:40;;;;;;;27.88;19.92;;;358.80;2329.60;;;;;;5048287;28;20533;-70